CheckWX is a tool to help pilots better visualize weather data.  It is not intended as a substitute for an official pre-flight weather briefing.

18:23:40 UTC

KRZL METAR
Jasper County Airport
Rensselaer, Indiana, USA
Current

9 mins ago

KRZL 201815Z AUTO 00000KT 10SM SCT039 SCT095 28/18 A3014 RMK AO2
Observed
Sep-20 @ 18:15 UTC
Visibility
10 SM
Flight Rules
VFR
Cloud Levels
  • Scattered at 3,900' AGL
  • Scattered at 9,500' AGL
Temperature
28°C / 82°F
Dewpoint
18°C / 64°F
Heat Index
29°C / 84°F
Humidity
55%
Altimeter
30.14" Hg
Pressure
1020.62 hPa
Previous

29 mins ago

KRZL 201755Z AUTO 00000KT 10SM CLR 28/19 A3014 RMK AO2
Observed
Sep-20 @ 17:55 UTC
Visibility
10 SM
Flight Rules
VFR
Cloud Levels
  • Clear skies
Temperature
28°C / 82°F
Dewpoint
19°C / 66°F
Heat Index
29°C / 84°F
Humidity
58%
Altimeter
30.14" Hg
Pressure
1020.62 hPa
Previous

49 mins ago

KRZL 201735Z AUTO 00000KT 10SM CLR 27/18 A3014 RMK AO2
Observed
Sep-20 @ 17:35 UTC
Visibility
10 SM
Flight Rules
VFR
Cloud Levels
  • Clear skies
Temperature
27°C / 81°F
Dewpoint
18°C / 64°F
Heat Index
28°C / 83°F
Humidity
58%
Altimeter
30.14" Hg
Pressure
1020.62 hPa